Shelton, Connecticut
Current Conditions -  °F | °C
As of 12:52 PM on Thursday 23 Oct 2014 (Local Time) from KBDR Reporting Station
Overcast Overcast  
Wind Chill: 53°   Ceiling: 2500
Heat Index: 53°   Visibility: 10mi
Dew Point: 47°   Wind: 10mph
Humidity: 80%   Direction: 330°NNW
Pressure: 29.65"   Gusts: NA
Location:  41.32°N, 73.11°W
Report Text: KBDR 231652Z 33009KT 10SM OVC025 12/08 A2965 RMK AO2 SLP041 T01170083
Loading
Personal Weather Stations






























Interactive Weather Map New forecast layout! Learn more

10-Day Weather Forecast

Advertisements
Track Severe Weather on mobile